Time;durP1;ratioP1;P1;durP2;ratioP2;P2;SDS_P1;SDS_P2;PMS_P1;PMS_P2;Temp;Humidity;BMP_temperature;BMP_pressure;BME280_temperature;BME280_humidity;BME280_pressure;Samples;Min_cycle;Max_cycle;Signal;HPM_P1;HPM_P2
2022/12/23 00:00:16;;;;;;;10.32;9.82;;;;;;;-3.39;100.00;100496.56;5011683;28;20033;-68
2022/12/23 00:02:42;;;;;;;10.70;10.20;;;;;;;-3.29;100.00;100493.47;5011597;28;20060;-69
2022/12/23 00:05:08;;;;;;;10.05;9.55;;;;;;;-3.30;100.00;100489.19;5011656;28;20054;-69
2022/12/23 00:07:33;;;;;;;10.43;9.93;;;;;;;-3.19;100.00;100487.66;5011998;28;20060;-70
2022/12/23 00:09:59;;;;;;;10.90;10.30;;;;;;;-3.37;100.00;100475.75;5011461;28;20014;-69
2022/12/23 00:15:09;;;;;;;10.15;9.65;;;;;;;-3.31;100.00;100480.56;5011679;28;20095;-68
2022/12/23 00:17:39;;;;;;;11.00;10.40;;;;;;;-3.21;100.00;100478.28;5014380;28;20034;-70
2022/12/23 00:20:06;;;;;;;10.60;10.00;;;;;;;-3.37;100.00;100465.38;5012141;28;20072;-70
2022/12/23 00:25:15;;;;;;;10.25;9.75;;;;;;;-3.34;100.00;100480.75;5009075;28;20149;-69
2022/12/23 00:27:41;;;;;;;10.20;9.70;;;;;;;-3.33;100.00;100483.25;5013986;28;20063;-68
2022/12/23 00:30:08;;;;;;;10.52;10.02;;;;;;;-3.42;100.00;100490.72;5013222;28;20017;-68
2022/12/23 00:32:34;;;;;;;10.85;10.25;;;;;;;-3.42;100.00;100496.75;5015243;28;20115;-69
2022/12/23 00:34:59;;;;;;;10.23;9.73;;;;;;;-3.27;100.00;100494.19;5015631;28;20046;-68
2022/12/23 00:37:25;;;;;;;10.48;9.93;;;;;;;-3.52;100.00;100489.56;5015265;28;20034;-68
2022/12/23 00:42:52;;;;;;;10.68;10.07;;;;;;;-3.39;100.00;100485.34;5014519;28;20167;-70
2022/12/23 00:45:18;;;;;;;10.10;9.60;;;;;;;-3.44;100.00;100495.16;5008638;28;20026;-68
2022/12/23 00:50:30;;;;;;;10.57;10.07;;;;;;;-3.14;100.00;100493.41;5014297;28;20065;-68
2022/12/23 00:52:56;;;;;;;10.90;10.30;;;;;;;-3.35;100.00;100490.28;5015187;28;20026;-68
2022/12/23 00:55:21;;;;;;;10.75;10.15;;;;;;;-3.25;100.00;100497.53;5014606;28;20405;-70
2022/12/23 00:57:47;;;;;;;9.88;9.38;;;;;;;-3.38;100.00;100487.00;5014999;28;20030;-69
2022/12/23 01:00:13;;;;;;;9.90;9.40;;;;;;;-3.34;100.00;100493.72;5013263;28;20025;-69
2022/12/23 01:05:37;;;;;;;;;;;;;;;-3.33;100.00;100491.03;5015106;28;20108;-68
2022/12/23 01:08:11;;;;;;;10.00;9.50;;;;;;;-3.31;100.00;100484.91;5009184;28;19914;-70
2022/12/23 01:10:38;;;;;;;10.40;9.90;;;;;;;-3.45;100.00;100490.88;5012605;28;20044;-69
2022/12/23 01:13:04;;;;;;;10.68;10.18;;;;;;;-3.31;100.00;100485.75;5014995;28;20057;-69
2022/12/23 01:15:29;;;;;;;10.65;10.15;;;;;;;-3.17;100.00;100485.78;5013881;28;20053;-69
2022/12/23 01:17:55;;;;;;;10.77;10.18;;;;;;;-3.30;100.00;100486.59;5014902;28;20560;-68
2022/12/23 01:20:21;;;;;;;10.15;9.65;;;;;;;-3.09;100.00;100488.78;5028296;28;20030;-69
2022/12/23 01:22:46;;;;;;;10.38;9.88;;;;;;;-3.22;100.00;100476.63;5014915;28;20048;-70
2022/12/23 01:25:12;;;;;;;10.43;9.93;;;;;;;-3.19;100.00;100466.06;5014355;28;21190;-69
2022/12/23 01:27:38;;;;;;;10.07;9.57;;;;;;;-3.25;100.00;100469.84;5014069;28;20061;-68
2022/12/23 01:30:04;;;;;;;10.18;9.68;;;;;;;-3.34;100.00;100470.38;5014324;28;20080;-69
2022/12/23 01:32:29;;;;;;;10.25;9.75;;;;;;;-3.29;100.00;100475.31;5013444;28;20026;-69
2022/12/23 01:34:55;;;;;;;9.68;9.20;;;;;;;-3.30;100.00;100469.28;5012890;28;20033;-69
2022/12/23 01:37:20;;;;;;;9.65;9.20;;;;;;;-3.25;100.00;100459.47;5014328;28;20520;-69
2022/12/23 01:39:46;;;;;;;10.32;9.82;;;;;;;-3.25;100.00;100459.47;5014014;28;20033;-69
2022/12/23 01:44:59;;;;;;;9.88;9.38;;;;;;;-3.37;100.00;100470.56;5012421;28;20096;-68
2022/12/23 01:47:55;;;;;;;10.38;9.88;;;;;;;-3.50;100.00;100477.34;5013026;28;20080;-70
2022/12/23 01:50:36;;;;;;;11.00;10.40;;;;;;;-3.50;100.00;100470.41;5012601;28;20028;-70
2022/12/23 01:53:08;;;;;;;10.02;9.52;;;;;;;-3.34;100.00;100470.38;5012726;28;20037;-70
2022/12/23 01:55:58;;;;;;;10.38;9.88;;;;;;;-3.51;100.00;100465.31;5013747;28;20046;-68
2022/12/23 01:58:32;;;;;;;11.50;10.82;;;;;;;-3.46;100.00;100464.09;5010924;28;20052;-68
2022/12/23 02:03:45;;;;;;;10.23;9.73;;;;;;;-3.57;100.00;100476.84;5014038;28;20037;-69
2022/12/23 02:09:27;;;;;;;10.48;9.98;;;;;;;-3.51;100.00;100462.72;4975243;28;20046;-68
2022/12/23 02:12:29;;;;;;;10.43;9.93;;;;;;;-3.45;100.00;100470.13;5014039;28;20374;-69
2022/12/23 02:18:23;;;;;;;10.52;10.02;;;;;;;-3.40;100.00;100458.56;5013590;28;20076;-68
2022/12/23 02:20:51;;;;;;;10.43;9.93;;;;;;;-3.53;100.00;100446.38;5012402;28;20034;-69
2022/12/23 02:23:42;;;;;;;10.48;9.98;;;;;;;-3.54;100.00;100452.50;5012874;28;20119;-69
2022/12/23 02:26:44;;;;;;;10.85;10.25;;;;;;;-3.38;100.00;100448.97;5010849;28;20029;-69
2022/12/23 02:29:22;;;;;;;10.85;10.35;;;;;;;-3.41;100.00;100456.09;5043518;28;20028;-69
2022/12/23 02:31:58;;;;;;;11.27;10.73;;;;;;;-3.34;100.00;100442.66;5013189;28;20044;-69
2022/12/23 02:34:46;;;;;;;10.50;10.00;;;;;;;-3.59;100.00;100413.91;5013256;28;20041;-69
2022/12/23 02:37:33;;;;;;;10.30;9.80;;;;;;;-3.55;100.00;100437.88;5013366;28;20030;-69
2022/12/23 02:40:34;;;;;;;10.38;9.88;;;;;;;-3.45;100.00;100445.06;5012135;28;20543;-68
2022/12/23 02:43:20;;;;;;;10.02;9.52;;;;;;;-3.45;100.00;100446.78;4971384;28;20041;-69
2022/12/23 02:45:52;;;;;;;10.20;9.70;;;;;;;-3.37;100.00;100452.41;5009717;28;20172;-69
2022/12/23 02:48:32;;;;;;;10.43;9.93;;;;;;;-3.56;100.00;100457.78;5013101;28;20040;-69
2022/12/23 02:51:00;;;;;;;10.45;9.95;;;;;;;-3.64;100.00;100452.19;5012986;28;20037;-69
2022/12/23 02:53:41;;;;;;;11.43;10.80;;;;;;;-3.67;100.00;100461.00;5011327;28;20034;-69
2022/12/23 02:56:09;;;;;;;10.45;9.95;;;;;;;-3.54;100.00;100455.94;5012661;28;20116;-69
2022/12/23 02:58:41;;;;;;;10.68;10.18;;;;;;;-3.71;100.00;100436.16;5011997;28;20022;-69
2022/12/23 03:01:08;;;;;;;11.13;10.52;;;;;;;-3.52;100.00;100445.50;5011488;28;20033;-68
2022/12/23 03:03:35;;;;;;;11.32;10.73;;;;;;;-3.53;100.00;100448.97;5012605;28;20096;-69
2022/12/23 03:06:03;;;;;;;10.52;10.02;;;;;;;-3.43;100.00;100443.22;5011347;28;20507;-69
2022/12/23 03:08:38;;;;;;;10.95;10.35;;;;;;;-3.41;100.00;100441.34;5011210;28;20025;-69
2022/12/23 03:11:12;;;;;;;11.15;10.55;;;;;;;-3.46;100.00;100434.75;5012611;28;20029;-69
2022/12/23 03:13:47;;;;;;;11.10;10.50;;;;;;;-3.49;100.00;100443.56;5012352;28;20032;-68
2022/12/23 03:16:45;;;;;;;10.65;10.13;;;;;;;-3.40;100.00;100442.19;5010601;28;20105;-70
2022/12/23 03:19:20;;;;;;;11.05;10.45;;;;;;;-3.27;100.00;100437.13;5008656;28;20466;-68
2022/12/23 03:22:07;;;;;;;10.43;9.93;;;;;;;-3.27;100.00;100437.13;5012598;28;20032;-68
2022/12/23 03:24:59;;;;;;;10.50;9.93;;;;;;;-3.43;100.00;100435.44;5010450;28;20738;-70
2022/12/23 03:27:32;;;;;;;10.60;10.00;;;;;;;-3.36;100.00;100428.13;5009347;28;20048;-69
2022/12/23 03:30:28;;;;;;;10.55;10.05;;;;;;;-3.33;100.00;100435.72;5012260;28;20076;-69
2022/12/23 03:33:17;;;;;;;10.10;9.60;;;;;;;-3.34;100.00;100444.44;4999069;28;20033;-69
2022/12/23 03:35:51;;;;;;;10.38;9.88;;;;;;;-3.19;100.00;100429.75;5011184;28;20033;-68
2022/12/23 03:38:18;;;;;;;10.57;10.07;;;;;;;-3.32;100.00;100439.97;5009864;28;20025;-69
2022/12/23 03:40:50;;;;;;;10.73;10.23;;;;;;;-3.14;100.00;100441.53;5008294;28;20026;-68
2022/12/23 03:43:33;;;;;;;10.68;10.10;;;;;;;-3.11;100.00;100435.31;5003055;28;20069;-70
2022/12/23 03:46:04;;;;;;;10.65;10.05;;;;;;;-3.23;100.00;100423.91;5012125;28;20030;-68
2022/12/23 03:48:38;;;;;;;11.38;10.77;;;;;;;-3.16;100.00;100427.81;5008523;28;20018;-68
2022/12/23 03:51:11;;;;;;;10.00;9.50;;;;;;;-3.14;100.00;100435.50;5011702;28;20025;-69
2022/12/23 03:53:46;;;;;;;10.80;10.20;;;;;;;-3.02;100.00;100434.75;5009705;28;20069;-69
2022/12/23 03:56:17;;;;;;;10.23;9.73;;;;;;;-3.07;100.00;100435.06;5010610;28;20116;-68
2022/12/23 03:59:05;;;;;;;10.30;9.80;;;;;;;-3.14;100.00;100420.78;5011501;28;20033;-68
2022/12/23 04:01:58;;;;;;;10.65;10.05;;;;;;;-3.13;100.00;100426.78;5011727;28;20029;-69
2022/12/23 04:04:59;;;;;;;10.38;9.82;;;;;;;-3.21;100.00;100429.00;5010488;28;20092;-69
2022/12/23 04:07:28;;;;;;;10.35;9.85;;;;;;;-2.99;100.00;100432.00;5002394;28;20038;-69
2022/12/23 04:09:54;;;;;;;10.23;9.73;;;;;;;-3.12;100.00;100433.66;5010961;28;20057;-69
2022/12/23 04:12:24;;;;;;;9.95;9.45;;;;;;;-3.03;100.00;100438.28;5010356;28;20160;-69
2022/12/23 04:14:50;;;;;;;10.30;9.80;;;;;;;-3.18;100.00;100439.19;5011893;28;20025;-68
2022/12/23 04:17:17;;;;;;;10.35;9.85;;;;;;;-3.02;100.00;100442.56;5010381;28;20456;-68
2022/12/23 04:19:44;;;;;;;10.23;9.73;;;;;;;-2.91;100.00;100434.97;5011410;28;20041;-69
2022/12/23 04:22:14;;;;;;;10.82;10.23;;;;;;;-2.87;100.00;100443.41;5005193;28;20120;-68
2022/12/23 04:24:40;;;;;;;11.15;10.55;;;;;;;-2.77;100.00;100436.75;5012042;28;20121;-70
2022/12/23 04:27:06;;;;;;;10.30;9.80;;;;;;;-3.02;100.00;100441.72;5011648;28;20104;-69
2022/12/23 04:29:32;;;;;;;10.07;9.57;;;;;;;-3.22;100.00;100440.31;5011440;28;20029;-70
2022/12/23 04:31:57;;;;;;;9.57;9.18;;;;;;;-3.21;100.00;100440.22;5011130;28;20413;-69
2022/12/23 04:34:23;;;;;;;10.80;10.20;;;;;;;-3.22;100.00;100432.53;5011301;28;20439;-69
2022/12/23 04:36:48;;;;;;;10.43;9.93;;;;;;;-3.25;100.00;100441.31;5011423;28;20030;-69
2022/12/23 04:39:14;;;;;;;10.48;9.98;;;;;;;-3.10;100.00;100440.41;5010298;28;20507;-68
2022/12/23 04:41:39;;;;;;;10.15;9.65;;;;;;;-3.09;100.00;100442.06;5011293;28;20121;-69
2022/12/23 04:44:05;;;;;;;10.90;10.30;;;;;;;-3.16;100.00;100439.94;5011400;28;20477;-69
2022/12/23 04:46:30;;;;;;;10.98;10.38;;;;;;;-3.09;100.00;100436.03;5011405;28;20033;-69
2022/12/23 04:48:56;;;;;;;10.82;10.23;;;;;;;-3.01;100.00;100453.75;5010032;28;20123;-68
2022/12/23 04:51:22;;;;;;;10.98;10.38;;;;;;;-2.97;100.00;100452.66;5011109;28;20189;-69
2022/12/23 04:53:47;;;;;;;10.45;9.95;;;;;;;-2.97;100.00;100450.91;5011123;28;20045;-69
2022/12/23 04:56:13;;;;;;;10.10;9.60;;;;;;;-2.90;100.00;100449.63;5009266;28;20477;-69
2022/12/23 04:58:38;;;;;;;10.57;10.05;;;;;;;-3.09;100.00;100438.66;5011301;28;20026;-69
2022/12/23 05:01:09;;;;;;;10.30;9.80;;;;;;;-2.93;100.00;100444.63;5011418;28;20060;-69
2022/12/23 05:03:36;;;;;;;10.30;9.80;;;;;;;-2.87;100.00;100448.59;5011474;28;20033;-70
2022/12/23 05:06:02;;;;;;;10.00;9.50;;;;;;;-2.80;100.00;100452.50;5013205;28;20041;-69
2022/12/23 05:08:27;;;;;;;10.88;10.27;;;;;;;-2.72;100.00;100452.88;5013158;28;20030;-69
2022/12/23 05:10:53;;;;;;;11.52;10.85;;;;;;;-2.70;100.00;100458.81;5014811;28;20032;-69
2022/12/23 05:13:19;;;;;;;10.02;9.52;;;;;;;-2.59;100.00;100450.38;5014163;28;20052;-69
2022/12/23 05:15:54;;;;;;;10.10;9.60;;;;;;;-2.59;100.00;100459.00;5013641;28;20033;-70
2022/12/23 05:18:20;;;;;;;10.43;9.93;;;;;;;-2.87;100.00;100448.59;5013590;28;20021;-69
2022/12/23 05:20:46;;;;;;;10.10;9.60;;;;;;;-2.82;100.00;100455.19;5014731;28;20026;-69
2022/12/23 05:23:12;;;;;;;10.75;10.15;;;;;;;-2.70;100.00;100458.00;5014652;28;20446;-70
2022/12/23 05:25:38;;;;;;;10.48;9.98;;;;;;;-2.80;100.00;100470.66;5014580;28;20096;-69
2022/12/23 05:28:06;;;;;;;10.85;10.25;;;;;;;-2.84;100.00;100470.03;5014593;28;20021;-69
2022/12/23 05:30:32;;;;;;;10.82;10.23;;;;;;;-2.86;100.00;100471.06;5014084;28;20014;-69
2022/12/23 05:32:58;;;;;;;10.32;9.82;;;;;;;-2.75;100.00;100471.25;5013272;28;20565;-68
2022/12/23 05:35:25;;;;;;;10.18;9.68;;;;;;;-2.72;100.00;100478.84;5014111;28;20052;-68
2022/12/23 05:37:51;;;;;;;10.18;9.68;;;;;;;-2.64;100.00;100484.44;5014367;28;20477;-68
2022/12/23 05:40:17;;;;;;;10.07;9.57;;;;;;;-2.63;100.00;100483.50;5029117;28;20485;-68
2022/12/23 05:42:43;;;;;;;9.93;9.43;;;;;;;-2.76;100.00;100481.72;5014428;28;20038;-68
2022/12/23 05:45:09;;;;;;;10.75;10.15;;;;;;;-2.64;100.00;100492.22;5014277;28;20021;-68
2022/12/23 05:47:34;;;;;;;11.60;10.90;;;;;;;-2.58;100.00;100497.03;5012192;28;20030;-70
2022/12/23 05:50:00;;;;;;;9.95;9.45;;;;;;;-2.73;100.00;100489.31;5011990;28;20097;-70
2022/12/23 05:52:26;;;;;;;10.13;9.63;;;;;;;-2.64;100.00;100497.41;5013961;28;20467;-70
2022/12/23 05:54:51;;;;;;;9.90;9.40;;;;;;;-2.61;100.00;100493.78;5013731;28;20508;-69
2022/12/23 05:57:17;;;;;;;10.50;9.95;;;;;;;-2.61;100.00;100505.00;5013702;28;20065;-69
2022/12/23 05:59:42;;;;;;;9.90;9.40;;;;;;;-2.67;100.00;100494.97;5013536;28;20055;-70
2022/12/23 06:02:08;;;;;;;10.23;9.73;;;;;;;-2.69;100.00;100509.00;5012786;28;20026;-68
2022/12/23 06:04:33;;;;;;;11.40;10.70;;;;;;;-2.58;100.00;100512.59;5011828;28;20041;-69
2022/12/23 06:06:58;;;;;;;11.02;10.43;;;;;;;-2.63;100.00;100517.25;5013249;28;20094;-69
2022/12/23 06:09:24;;;;;;;11.18;10.55;;;;;;;-2.66;100.00;100514.81;5011974;28;20026;-70
2022/12/23 06:11:49;;;;;;;10.35;9.85;;;;;;;-2.83;100.00;100525.38;5013629;28;20072;-68
2022/12/23 06:14:15;;;;;;;10.40;9.90;;;;;;;-2.48;100.00;100514.69;5011334;28;20040;-69
2022/12/23 06:16:40;;;;;;;10.40;9.85;;;;;;;-2.49;100.00;100521.63;5013588;28;20022;-69
2022/12/23 06:19:06;;;;;;;10.82;10.23;;;;;;;-2.46;100.00;100526.63;5013203;28;20056;-70
2022/12/23 06:21:32;;;;;;;10.73;10.13;;;;;;;-2.31;100.00;100535.28;5011247;28;20366;-70
2022/12/23 06:23:57;;;;;;;10.02;9.52;;;;;;;-2.58;100.00;100533.38;5013480;28;20025;-70
2022/12/23 06:26:22;;;;;;;10.38;9.80;;;;;;;-2.37;100.00;100527.84;5013308;28;20038;-70
2022/12/23 06:28:48;;;;;;;10.05;9.55;;;;;;;-2.14;100.00;100550.66;5010124;28;20110;-70
2022/12/23 06:31:14;;;;;;;11.20;10.60;;;;;;;-2.59;100.00;100523.09;5013542;28;20539;-70
2022/12/23 06:33:39;;;;;;;11.20;10.60;;;;;;;-2.62;100.00;100529.31;5012756;28;20523;-69
2022/12/23 06:36:06;;;;;;;9.75;9.25;;;;;;;-2.40;100.00;100520.25;5013179;28;20022;-69
2022/12/23 06:38:31;;;;;;;10.63;10.02;;;;;;;-2.17;100.00;100535.28;5010449;28;20485;-69
2022/12/23 06:40:57;;;;;;;10.95;10.35;;;;;;;-2.36;100.00;100538.13;5012730;28;20022;-69
2022/12/23 06:43:23;;;;;;;10.07;9.57;;;;;;;-2.16;100.00;100536.94;5012752;28;20021;-69
2022/12/23 06:45:49;;;;;;;10.55;10.00;;;;;;;-2.27;100.00;100524.63;5012898;28;20037;-69
2022/12/23 06:48:15;;;;;;;10.27;9.77;;;;;;;-2.36;100.00;100519.13;5012604;28;20038;-69
2022/12/23 06:50:42;;;;;;;10.43;9.93;;;;;;;-2.54;100.00;100526.25;5012884;28;20080;-68
2022/12/23 06:53:08;;;;;;;11.35;10.65;;;;;;;-2.25;100.00;100514.94;5012610;28;20373;-70
2022/12/23 06:55:34;;;;;;;10.63;10.02;;;;;;;-2.41;100.00;100536.75;5009388;28;20050;-69
2022/12/23 06:58:00;;;;;;;10.85;10.25;;;;;;;-2.07;100.00;100536.38;5012739;28;20025;-69
2022/12/23 07:00:25;;;;;;;10.63;10.02;;;;;;;-2.02;100.00;100528.31;5012787;28;20095;-69
2022/12/23 07:02:54;;;;;;;10.40;9.80;;;;;;;-2.25;100.00;100516.72;5012786;28;20477;-69
2022/12/23 07:05:19;;;;;;;10.00;9.50;;;;;;;-2.42;100.00;100522.06;5012644;28;20029;-69
2022/12/23 07:07:45;;;;;;;11.00;10.40;;;;;;;-2.27;100.00;100526.38;5011709;28;20081;-68
2022/12/23 07:10:10;;;;;;;9.85;9.35;;;;;;;-1.64;100.00;100536.31;5010978;28;20022;-70
2022/12/23 07:12:36;;;;;;;10.02;9.52;;;;;;;-1.88;100.00;100530.06;5009452;28;20034;-69
2022/12/23 07:15:04;;;;;;;9.73;9.23;;;;;;;-2.23;100.00;100541.66;5012618;28;20021;-70
2022/12/23 07:17:30;;;;;;;9.80;9.30;;;;;;;-2.19;100.00;100549.31;5010221;28;20456;-70
2022/12/23 07:19:55;;;;;;;9.95;9.45;;;;;;;-1.95;100.00;100553.00;5012774;28;20022;-70
2022/12/23 07:22:21;;;;;;;10.00;9.50;;;;;;;-1.50;100.00;100545.84;5012617;28;20025;-70
2022/12/23 07:24:47;;;;;;;10.02;9.52;;;;;;;-1.53;100.00;100546.91;5012079;28;20026;-68
2022/12/23 07:27:12;;;;;;;10.43;9.82;;;;;;;-1.23;100.00;100553.69;5011217;28;20363;-70
2022/12/23 07:29:38;;;;;;;10.30;9.75;;;;;;;-0.79;100.00;100542.13;5011152;28;20033;-70
2022/12/23 07:32:03;;;;;;;9.88;9.38;;;;;;;0.31;100.00;100530.19;5011865;28;20037;-70
2022/12/23 07:34:29;;;;;;;10.45;9.85;;;;;;;1.08;100.00;100538.50;5011636;28;20033;-69
2022/12/23 07:36:55;;;;;;;9.38;8.93;;;;;;;0.62;100.00;100531.41;5011593;28;20025;-69
2022/12/23 07:39:20;;;;;;;9.60;9.10;;;;;;;1.06;100.00;100516.88;5011647;28;20029;-69
2022/12/23 07:41:46;;;;;;;9.35;8.85;;;;;;;1.42;100.00;100505.44;4994345;28;20029;-69
2022/12/23 07:44:11;;;;;;;9.40;8.90;;;;;;;-0.17;100.00;100509.19;5012291;28;20032;-68
2022/12/23 07:46:37;;;;;;;9.27;8.82;;;;;;;0.99;100.00;100516.50;5010257;28;20477;-70
2022/12/23 07:49:03;;;;;;;9.80;9.30;;;;;;;0.89;100.00;100510.31;5011831;28;20429;-69
2022/12/23 07:51:29;;;;;;;9.48;8.98;;;;;;;-0.11;100.00;100507.94;5011970;28;20109;-69
2022/12/23 07:53:54;;;;;;;9.82;9.32;;;;;;;0.78;100.00;100520.69;5011729;28;20142;-70
2022/12/23 07:56:20;;;;;;;8.95;8.55;;;;;;;1.55;100.00;100519.25;5011688;28;20034;-70
2022/12/23 07:58:49;;;;;;;9.90;9.40;;;;;;;4.57;100.00;100514.34;5011713;28;20028;-68
2022/12/23 08:01:16;;;;;;;9.40;8.90;;;;;;;3.88;100.00;100506.41;5011878;28;20589;-68
2022/12/23 08:03:41;;;;;;;9.18;8.77;;;;;;;5.84;100.00;100515.84;5011044;28;20029;-70
2022/12/23 08:06:11;;;;;;;9.55;9.05;;;;;;;5.02;100.00;100505.09;5013514;28;20064;-69
2022/12/23 08:08:37;;;;;;;9.23;8.82;;;;;;;7.90;100.00;100507.84;5009717;28;20397;-70
2022/12/23 08:11:05;;;;;;;9.70;9.20;;;;;;;8.98;100.00;100493.81;5011504;28;20029;-70
2022/12/23 08:13:33;;;;;;;9.25;8.85;;;;;;;7.61;100.00;100501.09;5010026;28;20116;-70
2022/12/23 08:16:00;;;;;;;9.85;9.35;;;;;;;5.95;100.00;100499.06;5011404;28;20032;-70
2022/12/23 08:18:28;;;;;;;10.35;9.85;;;;;;;3.47;100.00;100494.22;5010940;28;20041;-68
2022/12/23 08:21:02;;;;;;;10.18;9.68;;;;;;;3.52;100.00;100498.06;5009063;28;20022;-70
2022/12/23 08:23:28;;;;;;;;;;;;;;;2.08;100.00;100501.19;5011553;28;20047;-69
2022/12/23 08:26:06;;;;;;;10.50;10.00;;;;;;;7.30;100.00;100508.66;5011318;28;19996;-70
2022/12/23 08:28:32;;;;;;;9.73;9.25;;;;;;;8.60;100.00;100508.47;5010011;28;20029;-69
2022/12/23 08:31:13;;;;;;;9.40;9.00;;;;;;;7.80;100.00;100505.34;5011799;28;20362;-69
2022/12/23 08:33:40;;;;;;;9.68;9.23;;;;;;;8.70;100.00;100508.31;5011149;28;20037;-70
2022/12/23 08:36:07;;;;;;;9.65;9.25;;;;;;;5.39;100.00;100506.00;5010266;28;20104;-69
2022/12/23 08:38:34;;;;;;;9.90;9.45;;;;;;;8.88;100.00;100508.97;5012782;28;20044;-69
2022/12/23 08:40:59;;;;;;;9.65;9.25;;;;;;;3.92;100.00;100505.19;5015446;28;20705;-69
2022/12/23 08:43:25;;;;;;;9.65;9.25;;;;;;;5.15;100.00;100511.72;5015557;28;20036;-68
2022/12/23 08:45:51;;;;;;;10.23;9.73;;;;;;;5.06;100.00;100511.72;5012964;28;20485;-69
2022/12/23 08:48:17;;;;;;;10.27;9.77;;;;;;;3.14;100.00;100503.09;5015653;28;20030;-69
2022/12/23 08:50:44;;;;;;;10.10;9.60;;;;;;;5.35;100.00;100509.88;5015222;28;20020;-69
2022/12/23 08:53:11;;;;;;;9.73;9.25;;;;;;;3.97;100.00;100508.25;5015547;28;20396;-68
2022/12/23 08:55:39;;;;;;;10.00;9.50;;;;;;;4.92;100.00;100510.31;5014880;28;20049;-68
2022/12/23 08:58:04;;;;;;;9.75;9.30;;;;;;;5.39;100.00;100511.25;5015224;28;20034;-68
2022/12/23 09:00:30;;;;;;;10.05;9.55;;;;;;;5.96;100.00;100514.72;5014725;28;20060;-69
2022/12/23 09:02:55;;;;;;;9.88;9.38;;;;;;;4.38;100.00;100498.53;5011395;28;20560;-69
2022/12/23 09:05:20;;;;;;;10.00;9.50;;;;;;;3.85;100.00;100489.13;5013882;28;20045;-70
2022/12/23 09:07:46;;;;;;;10.52;10.02;;;;;;;5.04;100.00;100490.00;5014801;28;20025;-69
2022/12/23 09:10:11;;;;;;;10.07;9.57;;;;;;;2.23;100.00;100499.13;5014617;28;20478;-70
2022/12/23 09:12:37;;;;;;;10.18;9.68;;;;;;;3.02;100.00;100497.91;5013896;28;20044;-69
2022/12/23 09:15:02;;;;;;;9.88;9.38;;;;;;;2.73;100.00;100512.59;5014533;28;20116;-69
2022/12/23 09:17:28;;;;;;;10.43;9.93;;;;;;;2.58;100.00;100500.72;5012328;28;20033;-70
2022/12/23 09:19:53;;;;;;;9.65;9.25;;;;;;;2.09;100.00;100500.22;5014466;28;20033;-69
2022/12/23 09:22:19;;;;;;;10.20;9.70;;;;;;;3.30;100.00;100490.34;5013086;28;20064;-69
2022/12/23 09:24:44;;;;;;;10.13;9.63;;;;;;;3.83;100.00;100488.44;5014369;28;20028;-70
2022/12/23 09:27:09;;;;;;;10.32;9.82;;;;;;;3.78;100.00;100466.19;5014233;28;20018;-69
2022/12/23 09:29:35;;;;;;;10.77;10.18;;;;;;;3.93;100.00;100477.97;5013827;28;20022;-69
2022/12/23 09:32:00;;;;;;;11.10;10.50;;;;;;;3.69;100.00;100475.69;5011492;28;20033;-69
2022/12/23 09:34:26;;;;;;;11.20;10.60;;;;;;;4.20;100.00;100481.78;5013647;28;20034;-69
2022/12/23 09:36:51;;;;;;;11.00;10.40;;;;;;;3.35;100.00;100472.47;5013918;28;20517;-69
2022/12/23 09:39:17;;;;;;;10.55;10.05;;;;;;;3.48;100.00;100467.84;5028972;28;20033;-68
2022/12/23 09:42:17;;;;;;;10.55;10.05;;;;;;;4.25;100.00;100467.28;5013751;28;20405;-70
2022/12/23 09:44:56;;;;;;;10.30;9.80;;;;;;;2.96;100.00;100456.50;5012422;28;20087;-69
2022/12/23 09:47:25;;;;;;;9.90;9.40;;;;;;;3.09;100.00;100471.22;5013228;28;20067;-69
2022/12/23 09:50:05;;;;;;;9.50;9.10;;;;;;;2.78;100.00;100468.47;5012891;28;20038;-69
2022/12/23 09:52:52;;;;;;;10.73;10.13;;;;;;;2.76;100.00;100470.41;5013123;28;20037;-69
2022/12/23 09:55:22;;;;;;;10.90;10.30;;;;;;;3.02;100.00;100465.66;5012708;28;20042;-69
2022/12/23 09:57:59;;;;;;;9.75;9.27;;;;;;;2.69;100.00;100471.88;5013927;28;20032;-69
2022/12/23 10:00:31;;;;;;;9.85;9.35;;;;;;;3.12;100.00;100468.31;5013065;28;20026;-69
2022/12/23 10:03:24;;;;;;;10.00;9.50;;;;;;;1.79;100.00;100466.00;5013563;28;20619;-70
2022/12/23 10:06:09;;;;;;;10.35;9.85;;;;;;;1.35;100.00;100454.59;5012004;28;20025;-69
2022/12/23 10:08:46;;;;;;;10.70;10.10;;;;;;;2.07;100.00;100462.06;5012048;28;20092;-69
2022/12/23 10:11:17;;;;;;;10.77;10.18;;;;;;;0.76;100.00;100454.69;5012669;28;20030;-68
2022/12/23 10:13:49;;;;;;;10.88;10.27;;;;;;;0.49;100.00;100460.16;5012651;28;20048;-70
2022/12/23 10:16:28;;;;;;;9.93;9.43;;;;;;;0.89;100.00;100472.91;5013412;28;20025;-69
2022/12/23 10:19:17;;;;;;;10.65;10.05;;;;;;;0.69;100.00;100472.59;5010172;28;20121;-69
2022/12/23 10:21:59;;;;;;;11.38;10.75;;;;;;;0.52;100.00;100486.06;5012929;28;20097;-69
2022/12/23 10:24:32;;;;;;;10.88;10.27;;;;;;;0.77;100.00;100478.09;5012537;28;20037;-70
2022/12/23 10:27:05;;;;;;;10.35;9.85;;;;;;;0.64;100.00;100466.88;5010595;28;20022;-69
2022/12/23 10:29:32;;;;;;;10.70;10.10;;;;;;;0.27;100.00;100463.50;5011514;28;20022;-69
2022/12/23 10:32:16;;;;;;;10.30;9.80;;;;;;;0.37;100.00;100480.16;5012873;28;20029;-69
2022/12/23 10:34:56;;;;;;;9.98;9.48;;;;;;;1.57;100.00;100477.31;5013099;28;20036;-69
2022/12/23 10:37:49;;;;;;;9.73;9.23;;;;;;;0.89;100.00;100473.75;5010657;28;20030;-70
2022/12/23 10:40:59;;;;;;;10.13;9.63;;;;;;;1.56;100.00;100468.63;5011337;28;20629;-70
2022/12/23 10:43:50;;;;;;;10.43;9.82;;;;;;;1.49;100.00;100464.00;4951911;29;20067;-70
2022/12/23 10:46:42;;;;;;;9.90;9.40;;;;;;;1.51;100.00;100459.47;4950391;29;20081;-70
2022/12/23 10:49:43;;;;;;;9.60;9.10;;;;;;;1.38;100.00;100452.56;5003653;28;20060;-69
2022/12/23 10:52:18;;;;;;;9.85;9.35;;;;;;;1.07;100.00;100448.00;5010399;28;20122;-68
2022/12/23 10:54:45;;;;;;;10.20;9.63;;;;;;;2.07;100.00;100456.84;5011681;28;20573;-69
2022/12/23 10:57:14;;;;;;;9.85;9.35;;;;;;;1.73;100.00;100456.03;5010937;28;20030;-70
2022/12/23 10:59:40;;;;;;;9.70;9.20;;;;;;;1.13;100.00;100452.78;5012565;28;20469;-69
2022/12/23 11:02:08;;;;;;;9.30;8.90;;;;;;;0.63;100.00;100451.31;5011652;28;20033;-70
2022/12/23 11:04:35;;;;;;;10.15;9.65;;;;;;;0.78;100.00;100447.56;5012622;28;20056;-69
2022/12/23 11:07:02;;;;;;;11.50;10.80;;;;;;;0.87;100.00;100448.66;5012375;28;20026;-70
2022/12/23 11:09:37;;;;;;;10.00;9.50;;;;;;;1.42;100.00;100454.97;5010904;28;20032;-70
2022/12/23 11:12:06;;;;;;;10.80;10.20;;;;;;;0.99;100.00;100442.53;5010696;28;20095;-70
2022/12/23 11:14:38;;;;;;;10.35;9.77;;;;;;;1.39;100.00;100451.59;5012366;28;20104;-69
2022/12/23 11:17:16;;;;;;;9.98;9.48;;;;;;;0.85;100.00;100443.56;5011255;28;20076;-69
2022/12/23 11:19:42;;;;;;;9.60;9.10;;;;;;;0.92;100.00;100438.72;5010044;28;20042;-69
2022/12/23 11:22:21;;;;;;;9.63;9.13;;;;;;;1.59;100.00;100439.63;5012534;28;20396;-68
2022/12/23 11:24:46;;;;;;;11.00;10.35;;;;;;;1.15;100.00;100442.22;5011382;28;20036;-68
2022/12/23 11:27:15;;;;;;;9.85;9.35;;;;;;;1.16;100.00;100429.03;5011201;28;20026;-69
2022/12/23 11:29:53;;;;;;;10.18;9.65;;;;;;;1.98;100.00;100432.19;5011652;28;20017;-69
2022/12/23 11:32:25;;;;;;;10.02;9.52;;;;;;;1.82;100.00;100423.91;5011555;28;20046;-69
2022/12/23 11:34:51;;;;;;;10.32;9.75;;;;;;;1.66;100.00;100424.28;5011892;28;20026;-70
2022/12/23 11:37:39;;;;;;;9.23;8.82;;;;;;;1.97;100.00;100427.09;5012021;28;20040;-69
2022/12/23 11:40:14;;;;;;;9.82;9.32;;;;;;;2.31;100.00;100427.84;5010963;28;20346;-70
2022/12/23 11:42:40;;;;;;;9.65;9.15;;;;;;;1.87;100.00;100425.22;5009687;28;20030;-70
2022/12/23 11:45:07;;;;;;;10.40;9.80;;;;;;;2.22;100.00;100430.25;5011325;28;20026;-68
2022/12/23 11:47:38;;;;;;;10.80;10.20;;;;;;;2.55;100.00;100415.38;5011856;28;20021;-70
2022/12/23 11:50:28;;;;;;;9.77;9.27;;;;;;;2.35;100.00;100424.88;5011781;28;20022;-70
2022/12/23 11:53:22;;;;;;;11.18;10.48;;;;;;;2.31;100.00;100423.44;5008249;28;20022;-70